createdAt,value
2023-01-28T00:02:14.010Z,5.13
2023-01-28T00:04:43.606Z,5.10
2023-01-28T00:07:10.859Z,5.20
2023-01-28T00:09:40.264Z,5.38
2023-01-28T00:12:12.428Z,5.45
2023-01-28T00:14:42.054Z,5.35
2023-01-28T00:17:12.077Z,5.18
2023-01-28T00:19:39.929Z,4.60
2023-01-28T00:22:07.315Z,4.55
2023-01-28T00:24:34.644Z,4.30
2023-01-28T00:27:01.943Z,4.25
2023-01-28T00:29:31.496Z,5.03
2023-01-28T00:32:00.920Z,4.78
2023-01-28T00:34:28.248Z,3.60
2023-01-28T00:36:58.188Z,4.65
2023-01-28T00:39:26.693Z,4.65
2023-01-28T00:41:54.619Z,4.85
2023-01-28T00:44:22.459Z,4.05
2023-01-28T00:46:51.855Z,4.88
2023-01-28T00:49:21.342Z,4.40
2023-01-28T00:51:49.060Z,4.35
2023-01-28T00:54:19.120Z,5.05
2023-01-28T00:56:48.499Z,4.80
2023-01-28T00:59:16.579Z,4.55
2023-01-28T01:01:47.054Z,5.60
2023-01-28T01:04:26.392Z,5.50
2023-01-28T01:06:53.697Z,5.65
2023-01-28T01:09:22.487Z,4.70
2023-01-28T01:11:54.433Z,4.85
2023-01-28T01:14:23.897Z,5.22
2023-01-28T01:16:51.105Z,5.82
2023-01-28T01:19:20.571Z,5.53
2023-01-28T01:21:50.588Z,5.72
2023-01-28T01:24:18.243Z,5.55
2023-01-28T01:26:47.837Z,6.57
2023-01-28T01:29:15.119Z,6.07
2023-01-28T01:31:45.223Z,5.20
2023-01-28T01:34:12.495Z,5.80
2023-01-28T01:36:43.928Z,6.30
2023-01-28T01:39:15.657Z,5.47
2023-01-28T01:41:45.861Z,6.25
2023-01-28T01:44:50.838Z,5.93
2023-01-28T01:47:19.132Z,6.40
2023-01-28T01:49:48.671Z,6.13
2023-01-28T01:52:20.744Z,5.95
2023-01-28T01:54:52.677Z,5.47
2023-01-28T01:57:24.595Z,5.57
2023-01-28T01:59:52.195Z,6.10
2023-01-28T02:02:22.322Z,6.18
2023-01-28T02:04:54.489Z,5.78
2023-01-28T02:07:21.794Z,6.47
2023-01-28T02:09:51.587Z,5.93
2023-01-28T02:12:23.166Z,5.63
2023-01-28T02:14:56.526Z,6.05
2023-01-28T02:20:11.926Z,5.60
2023-01-28T02:23:00.217Z,6.53
2023-01-28T02:25:46.198Z,6.00
2023-01-28T02:28:33.689Z,5.63
2023-01-28T02:31:35.384Z,6.72
2023-01-28T02:34:18.295Z,6.03
2023-01-28T02:36:59.586Z,6.10
2023-01-28T02:39:33.138Z,6.35
2023-01-28T02:42:07.940Z,6.45
2023-01-28T02:44:37.417Z,5.75
2023-01-28T02:47:29.683Z,6.70
2023-01-28T02:50:00.050Z,6.28
2023-01-28T02:53:08.689Z,6.78
2023-01-28T02:55:45.254Z,6.45
2023-01-28T02:58:32.925Z,6.25
2023-01-28T03:01:27.198Z,6.93
2023-01-28T03:04:24.693Z,7.18
2023-01-28T03:07:00.530Z,6.53
2023-01-28T03:09:27.899Z,7.13
2023-01-28T03:12:30.950Z,6.20
2023-01-28T03:15:22.947Z,6.93
2023-01-28T03:18:31.525Z,6.63
2023-01-28T03:21:45.818Z,6.45
2023-01-28T03:24:39.071Z,6.45
2023-01-28T03:27:45.732Z,6.20
2023-01-28T03:30:37.359Z,6.90
2023-01-28T03:33:26.233Z,6.68
2023-01-28T03:36:12.268Z,6.53
2023-01-28T03:38:43.721Z,6.53
2023-01-28T03:41:12.065Z,6.32
2023-01-28T03:43:39.393Z,6.47
2023-01-28T03:46:06.686Z,6.10
2023-01-28T03:48:33.951Z,6.25
2023-01-28T03:51:03.676Z,5.70
2023-01-28T03:53:35.775Z,6.43
2023-01-28T03:56:05.861Z,6.82
2023-01-28T03:59:08.732Z,7.05
2023-01-28T04:01:35.960Z,6.32
2023-01-28T04:04:05.709Z,5.90
2023-01-28T04:06:32.951Z,6.43
2023-01-28T04:09:00.199Z,6.25
2023-01-28T04:11:31.819Z,6.35
2023-01-28T04:13:59.028Z,5.90
2023-01-28T04:16:28.587Z,6.75
2023-01-28T04:18:56.055Z,6.70
2023-01-28T04:21:23.384Z,5.97
2023-01-28T04:23:51.183Z,5.68
2023-01-28T04:26:18.508Z,6.47
2023-01-28T04:28:45.708Z,5.53
2023-01-28T04:31:12.970Z,6.72
2023-01-28T04:33:40.203Z,6.30
2023-01-28T04:36:07.637Z,6.45
2023-01-28T04:38:37.392Z,6.22
2023-01-28T04:41:04.747Z,5.82
2023-01-28T04:43:32.022Z,6.30
2023-01-28T04:46:01.758Z,6.53
2023-01-28T04:48:30.580Z,6.03
2023-01-28T04:50:58.116Z,6.38
2023-01-28T04:53:25.379Z,5.65
2023-01-28T04:55:57.571Z,6.15
2023-01-28T04:58:27.513Z,6.00
2023-01-28T05:00:58.862Z,5.88
2023-01-28T05:03:26.550Z,5.85
2023-01-28T05:05:53.764Z,5.70
2023-01-28T05:08:23.167Z,5.75
2023-01-28T05:10:52.779Z,5.80
2023-01-28T05:13:20.016Z,5.57
2023-01-28T05:15:55.551Z,5.75
2023-01-28T05:18:22.777Z,5.85
2023-01-28T05:20:50.071Z,5.65
2023-01-28T05:23:19.879Z,5.97
2023-01-28T05:25:47.223Z,6.22
2023-01-28T05:28:17.636Z,5.68
2023-01-28T05:30:45.073Z,5.43
2023-01-28T05:33:12.471Z,5.03
2023-01-28T05:35:39.985Z,5.35
2023-01-28T05:38:07.225Z,5.32
2023-01-28T05:40:34.518Z,6.10
2023-01-28T05:43:01.766Z,5.72
2023-01-28T05:45:29.031Z,5.13
2023-01-28T05:47:56.287Z,5.47
2023-01-28T05:50:23.527Z,5.25
2023-01-28T05:52:50.827Z,4.97
2023-01-28T05:55:20.940Z,5.57
2023-01-28T05:57:48.863Z,5.60
2023-01-28T06:00:18.663Z,5.05
2023-01-28T06:02:48.228Z,5.03
2023-01-28T06:05:18.118Z,4.95
2023-01-28T06:07:46.625Z,5.55
2023-01-28T06:10:14.920Z,5.30
2023-01-28T06:12:44.997Z,5.32
2023-01-28T06:15:12.406Z,5.22
2023-01-28T06:17:42.171Z,5.45
2023-01-28T06:20:10.639Z,5.60
2023-01-28T06:22:37.854Z,5.45
2023-01-28T06:25:05.576Z,5.70
2023-01-28T06:27:32.848Z,5.30
2023-01-28T06:30:02.488Z,5.28
2023-01-28T06:32:32.567Z,5.20
2023-01-28T06:34:59.956Z,5.32
2023-01-28T06:37:27.241Z,5.13
2023-01-28T06:39:56.979Z,5.15
2023-01-28T06:42:26.410Z,4.90
2023-01-28T06:44:54.789Z,5.22
2023-01-28T06:47:24.163Z,4.93
2023-01-28T06:49:51.443Z,5.28
2023-01-28T06:52:20.923Z,4.80
2023-01-28T06:54:48.158Z,4.93
2023-01-28T06:57:17.626Z,5.22
2023-01-28T06:59:44.874Z,4.90
2023-01-28T07:02:16.703Z,5.25
2023-01-28T07:04:43.937Z,5.00
2023-01-28T07:07:13.289Z,4.82
2023-01-28T07:09:42.892Z,5.35
2023-01-28T07:12:10.207Z,4.85
2023-01-28T07:14:37.432Z,4.60
2023-01-28T07:17:07.285Z,4.78
2023-01-28T07:19:34.512Z,5.47
2023-01-28T07:22:03.168Z,5.25
2023-01-28T07:24:33.825Z,5.65
2023-01-28T07:27:01.096Z,5.28
2023-01-28T07:29:30.848Z,4.63
2023-01-28T07:31:58.171Z,5.05
2023-01-28T07:34:25.455Z,4.65
2023-01-28T07:36:52.710Z,5.90
2023-01-28T07:39:19.965Z,5.35
2023-01-28T07:41:47.472Z,5.13
2023-01-28T07:44:14.793Z,5.40
2023-01-28T07:46:42.026Z,5.13
2023-01-28T07:49:09.307Z,4.80
2023-01-28T07:51:38.725Z,4.65
2023-01-28T07:54:06.058Z,5.57
2023-01-28T07:56:33.341Z,5.15
2023-01-28T07:59:00.549Z,6.05
2023-01-28T08:01:27.910Z,5.50
2023-01-28T08:03:57.338Z,5.72
2023-01-28T08:06:28.942Z,6.30
2023-01-28T08:08:58.643Z,6.20
2023-01-28T08:11:25.916Z,6.22
2023-01-28T08:13:53.127Z,5.97
2023-01-28T08:16:20.402Z,5.78
2023-01-28T08:18:47.648Z,6.28
2023-01-28T08:21:14.853Z,7.00
2023-01-28T08:23:42.094Z,6.45
2023-01-28T08:26:11.564Z,6.60
2023-01-28T08:28:38.834Z,6.78
2023-01-28T08:31:08.505Z,6.50
2023-01-28T08:33:35.801Z,6.47
2023-01-28T08:36:04.764Z,7.40
2023-01-28T08:38:32.232Z,6.25
2023-01-28T08:41:01.880Z,6.22
2023-01-28T08:43:29.212Z,6.25
2023-01-28T08:45:58.781Z,6.40
2023-01-28T08:48:30.761Z,6.70
2023-01-28T08:51:01.985Z,6.10
2023-01-28T08:53:29.191Z,6.80
2023-01-28T08:55:56.702Z,5.85
2023-01-28T08:58:26.113Z,6.88
2023-01-28T09:00:55.718Z,5.78
2023-01-28T09:03:23.019Z,6.43
2023-01-28T09:05:50.425Z,6.68
2023-01-28T09:08:19.842Z,6.90
2023-01-28T09:10:49.295Z,6.32
2023-01-28T09:13:16.750Z,6.35
2023-01-28T09:15:46.607Z,6.82
2023-01-28T09:18:15.978Z,6.68
2023-01-28T09:20:43.227Z,6.82
2023-01-28T09:23:13.784Z,6.10
2023-01-28T09:25:41.127Z,6.28
2023-01-28T09:28:08.550Z,6.45
2023-01-28T09:30:39.621Z,6.50
2023-01-28T09:33:07.901Z,6.72
2023-01-28T09:35:35.891Z,6.30
2023-01-28T09:38:03.131Z,6.05
2023-01-28T09:40:35.337Z,6.30
2023-01-28T09:43:08.472Z,6.07
2023-01-28T09:45:40.683Z,6.15
2023-01-28T09:48:23.975Z,6.15
2023-01-28T09:50:56.106Z,6.20
2023-01-28T09:53:28.019Z,5.57
2023-01-28T09:56:03.736Z,5.95
2023-01-28T09:58:31.912Z,5.93
2023-01-28T10:01:35.585Z,6.15
2023-01-28T10:04:02.874Z,5.95
2023-01-28T10:06:57.655Z,6.07
2023-01-28T10:09:56.724Z,6.63
2023-01-28T10:12:36.354Z,5.78
2023-01-28T10:15:28.409Z,6.25
2023-01-28T10:18:16.552Z,5.88
2023-01-28T10:20:55.374Z,5.97
2023-01-28T10:23:52.151Z,5.78
2023-01-28T10:26:31.004Z,6.45
2023-01-28T10:29:04.743Z,6.90
2023-01-28T10:31:40.658Z,7.05
2023-01-28T10:34:14.447Z,6.10
2023-01-28T10:36:44.775Z,6.50
2023-01-28T10:39:16.752Z,5.78
2023-01-28T10:41:56.642Z,5.80
2023-01-28T10:44:36.234Z,6.15
2023-01-28T10:47:13.536Z,6.63
2023-01-28T10:49:52.336Z,6.30
2023-01-28T10:52:19.645Z,7.82
2023-01-28T10:54:49.035Z,7.30
2023-01-28T10:57:18.875Z,7.32
2023-01-28T10:59:46.224Z,6.32
2023-01-28T11:02:32.703Z,6.18
2023-01-28T11:05:06.842Z,5.90
2023-01-28T11:07:36.877Z,5.32
2023-01-28T11:10:24.749Z,5.78
2023-01-28T11:12:58.813Z,5.93
2023-01-28T11:15:31.012Z,5.93
2023-01-28T11:18:30.018Z,5.73
2023-01-28T11:21:02.653Z,6.13
2023-01-28T11:23:34.220Z,6.25
2023-01-28T11:26:06.488Z,6.32
2023-01-28T11:28:35.082Z,6.18
2023-01-28T11:31:03.476Z,6.55
2023-01-28T11:33:33.897Z,6.43
2023-01-28T11:36:21.311Z,6.32
2023-01-28T11:38:56.607Z,6.38
2023-01-28T11:41:35.881Z,6.57
2023-01-28T11:44:16.441Z,6.40
2023-01-28T11:47:27.678Z,6.70
2023-01-28T11:50:00.174Z,7.13
2023-01-28T11:53:02.607Z,6.40
2023-01-28T11:55:38.886Z,6.95
2023-01-28T11:58:27.595Z,6.90
2023-01-28T12:01:00.606Z,6.88
2023-01-28T12:03:49.946Z,6.30
2023-01-28T12:07:04.283Z,7.07
2023-01-28T12:12:14.749Z,6.80
2023-01-28T12:14:48.166Z,7.05
2023-01-28T12:20:11.172Z,7.55
2023-01-28T12:23:00.132Z,7.65
2023-01-28T12:25:53.141Z,7.75
2023-01-28T12:28:54.093Z,6.33
2023-01-28T12:31:56.844Z,6.07
2023-01-28T12:34:58.198Z,5.47
2023-01-28T12:37:43.347Z,5.95
2023-01-28T12:40:28.350Z,6.30
2023-01-28T12:43:16.578Z,6.13
2023-01-28T12:45:49.242Z,5.18
2023-01-28T12:48:29.918Z,5.70
2023-01-28T12:51:29.817Z,7.70
2023-01-28T12:54:11.631Z,5.90
2023-01-28T12:56:45.442Z,5.88
2023-01-28T12:59:39.757Z,5.65
2023-01-28T13:02:24.366Z,5.57
2023-01-28T13:04:54.944Z,5.85
2023-01-28T13:07:48.235Z,5.60
2023-01-28T13:10:30.149Z,5.28
2023-01-28T13:13:01.386Z,5.70
2023-01-28T13:15:29.109Z,5.15
2023-01-28T13:18:05.470Z,5.78
2023-01-28T13:20:45.805Z,6.13
2023-01-28T13:23:44.653Z,5.63
2023-01-28T13:26:28.951Z,5.88
2023-01-28T13:29:27.743Z,5.38
2023-01-28T13:31:57.628Z,5.35
2023-01-28T13:34:44.300Z,5.97
2023-01-28T13:37:36.667Z,5.18
2023-01-28T13:40:13.165Z,5.55
2023-01-28T13:42:41.528Z,6.20
2023-01-28T13:45:24.272Z,5.80
2023-01-28T13:48:10.562Z,5.88
2023-01-28T13:50:45.074Z,6.22
2023-01-28T13:53:23.626Z,5.95
2023-01-28T13:55:55.957Z,5.93
2023-01-28T13:58:41.764Z,5.90
2023-01-28T14:02:00.412Z,6.10
2023-01-28T14:04:42.851Z,5.80
2023-01-28T14:07:12.893Z,5.93
2023-01-28T14:10:04.655Z,6.30
2023-01-28T14:12:47.944Z,5.35
2023-01-28T14:15:58.564Z,5.70
2023-01-28T14:18:33.816Z,6.22
2023-01-28T14:21:03.699Z,5.22
2023-01-28T14:23:34.277Z,6.22
2023-01-28T14:26:18.849Z,5.65
2023-01-28T14:28:52.278Z,5.30
2023-01-28T14:33:56.090Z,5.28
2023-01-28T14:36:26.206Z,5.22
2023-01-28T14:38:57.600Z,5.57
2023-01-28T14:41:27.959Z,5.45
2023-01-28T14:43:56.606Z,5.72
2023-01-28T14:47:17.539Z,5.28
2023-01-28T14:50:08.877Z,5.65
2023-01-28T14:52:48.066Z,5.03
2023-01-28T14:55:38.446Z,6.25
2023-01-28T14:58:15.046Z,5.75
2023-01-28T15:00:56.709Z,5.78
2023-01-28T15:03:30.239Z,5.78
2023-01-28T15:06:14.614Z,5.50
2023-01-28T15:08:42.020Z,5.68
2023-01-28T15:11:14.387Z,5.05
2023-01-28T15:13:45.182Z,5.43
2023-01-28T15:16:38.687Z,5.40
2023-01-28T15:19:08.355Z,5.47
2023-01-28T15:21:36.448Z,5.95
2023-01-28T15:24:07.085Z,5.45
2023-01-28T15:26:35.036Z,5.63
2023-01-28T15:29:02.343Z,6.22
2023-01-28T15:31:32.822Z,5.45
2023-01-28T15:34:10.707Z,5.85
2023-01-28T15:36:40.932Z,5.53
2023-01-28T15:39:20.254Z,5.93
2023-01-28T15:41:52.743Z,7.13
2023-01-28T15:44:31.180Z,6.80
2023-01-28T15:47:04.604Z,6.47
2023-01-28T15:54:42.433Z,5.47
2023-01-28T15:57:21.294Z,5.85
2023-01-28T15:59:51.363Z,6.00
2023-01-28T16:02:22.072Z,5.75
2023-01-28T16:05:03.759Z,5.57
2023-01-28T16:07:33.315Z,5.80
2023-01-28T16:10:03.492Z,5.45
2023-01-28T16:12:33.110Z,6.20
2023-01-28T16:15:05.780Z,5.50
2023-01-28T16:17:47.537Z,5.97
2023-01-28T16:20:29.832Z,6.18
2023-01-28T16:23:02.937Z,6.63
2023-01-28T16:25:31.921Z,7.85
2023-01-28T16:28:00.965Z,8.65
2023-01-28T16:30:31.111Z,9.10
2023-01-28T16:32:58.574Z,8.65
2023-01-28T16:35:42.465Z,7.90
2023-01-28T16:38:17.162Z,7.43
2023-01-28T16:40:48.487Z,6.63
2023-01-28T16:43:19.531Z,6.85
2023-01-28T16:45:46.851Z,6.35
2023-01-28T16:48:14.327Z,6.63
2023-01-28T16:50:45.645Z,5.90
2023-01-28T16:53:21.095Z,5.97
2023-01-28T16:55:52.159Z,6.32
2023-01-28T16:58:23.972Z,6.38
2023-01-28T17:00:51.954Z,6.10
2023-01-28T17:03:22.096Z,6.00
2023-01-28T17:05:49.406Z,6.75
2023-01-28T17:08:17.018Z,6.68
2023-01-28T17:10:47.271Z,6.00
2023-01-28T17:13:14.541Z,6.05
2023-01-28T17:15:44.059Z,6.97
2023-01-28T17:18:13.922Z,7.18
2023-01-28T17:20:43.569Z,7.10
2023-01-28T17:23:16.257Z,6.60
2023-01-28T17:25:45.982Z,5.85
2023-01-28T17:28:13.221Z,6.72
2023-01-28T17:30:41.763Z,6.57
2023-01-28T17:33:09.491Z,6.95
2023-01-28T17:35:39.421Z,6.55
2023-01-28T17:38:06.738Z,6.85
2023-01-28T17:40:33.988Z,7.18
2023-01-28T17:43:01.286Z,6.50
2023-01-28T17:45:31.365Z,6.22
2023-01-28T17:47:58.738Z,6.32
2023-01-28T17:50:26.304Z,6.50
2023-01-28T17:52:57.362Z,6.05
2023-01-28T17:55:25.502Z,6.47
2023-01-28T17:57:55.081Z,6.78
2023-01-28T18:00:22.628Z,6.45
2023-01-28T18:02:51.183Z,6.53
2023-01-28T18:05:20.969Z,6.53
2023-01-28T18:07:52.109Z,7.47
2023-01-28T18:10:19.574Z,7.32
2023-01-28T18:12:46.807Z,7.00
2023-01-28T18:15:18.612Z,6.90
2023-01-28T18:17:46.008Z,6.65
2023-01-28T18:20:13.383Z,7.10
2023-01-28T18:22:42.729Z,7.43
2023-01-28T18:25:15.296Z,7.28
2023-01-28T18:27:52.178Z,7.22
2023-01-28T18:30:19.553Z,8.00
2023-01-28T18:32:48.986Z,7.95
2023-01-28T18:35:16.415Z,7.93
2023-01-28T18:37:43.807Z,7.68
2023-01-28T18:40:11.761Z,8.00
2023-01-28T18:42:41.194Z,8.32
2023-01-28T18:45:08.777Z,8.15
2023-01-28T18:47:36.068Z,8.35
2023-01-28T18:50:05.922Z,8.60
2023-01-28T18:52:35.446Z,7.43
2023-01-28T18:55:02.678Z,8.57
2023-01-28T18:57:30.037Z,8.65
2023-01-28T18:59:57.344Z,9.32
2023-01-28T19:02:24.677Z,9.00
2023-01-28T19:04:54.839Z,7.32
2023-01-28T19:07:22.136Z,6.97
2023-01-28T19:09:49.432Z,7.15
2023-01-28T19:12:20.950Z,7.70
2023-01-28T19:14:49.777Z,7.93
2023-01-28T19:17:17.030Z,10.48
2023-01-28T19:19:46.610Z,11.05
2023-01-28T19:22:16.565Z,10.13
2023-01-28T19:24:48.945Z,9.45
2023-01-28T19:27:16.260Z,8.53
2023-01-28T19:29:43.736Z,8.45
2023-01-28T19:32:11.008Z,9.02
2023-01-28T19:34:38.315Z,9.43
2023-01-28T19:37:05.641Z,8.48
2023-01-28T19:39:33.026Z,7.82
2023-01-28T19:42:03.146Z,8.18
2023-01-28T19:44:34.082Z,7.75
2023-01-28T19:47:05.689Z,9.45
2023-01-28T19:49:32.990Z,13.38
2023-01-28T19:52:02.737Z,13.45
2023-01-28T19:54:29.991Z,12.57
2023-01-28T19:57:01.955Z,11.70
2023-01-28T19:59:29.189Z,11.50
2023-01-28T20:01:56.538Z,12.98
2023-01-28T20:04:23.841Z,13.10
2023-01-28T20:06:51.022Z,13.95
2023-01-28T20:09:20.068Z,13.93
2023-01-28T20:11:47.481Z,15.27
2023-01-28T20:14:16.117Z,17.85
2023-01-28T20:16:43.353Z,15.60
2023-01-28T20:19:18.985Z,20.80
2023-01-28T20:21:50.490Z,20.50
2023-01-28T20:24:17.888Z,19.50
2023-01-28T20:26:45.220Z,17.05
2023-01-28T20:29:18.035Z,17.27
2023-01-28T20:31:46.014Z,17.95
2023-01-28T20:34:20.510Z,14.52
2023-01-28T20:36:47.753Z,14.13
2023-01-28T20:39:17.110Z,14.40
2023-01-28T20:41:46.541Z,13.95
2023-01-28T20:44:13.775Z,14.07
2023-01-28T20:46:43.317Z,14.82
2023-01-28T20:49:12.964Z,21.98
2023-01-28T20:51:42.322Z,23.63
2023-01-28T20:54:12.665Z,19.65
2023-01-28T20:56:42.394Z,18.08
2023-01-28T20:59:10.948Z,18.85
2023-01-28T21:01:38.261Z,18.80
2023-01-28T21:04:10.655Z,17.77
2023-01-28T21:06:40.407Z,16.15
2023-01-28T21:09:08.130Z,15.90
2023-01-28T21:11:35.641Z,14.40
2023-01-28T21:14:02.836Z,15.60
2023-01-28T21:16:35.633Z,18.02
2023-01-28T21:19:05.365Z,16.13
2023-01-28T21:21:34.866Z,16.05
2023-01-28T21:24:02.284Z,17.17
2023-01-28T21:26:29.687Z,18.50
2023-01-28T21:28:57.105Z,18.88
2023-01-28T21:31:27.793Z,19.13
2023-01-28T21:33:58.203Z,17.85
2023-01-28T21:36:33.566Z,17.38
2023-01-28T21:39:01.421Z,30.17
2023-01-28T21:41:31.478Z,28.20
2023-01-28T21:43:59.247Z,24.55
2023-01-28T21:46:31.765Z,22.85
2023-01-28T21:49:03.587Z,20.05
2023-01-28T21:51:40.257Z,21.85
2023-01-28T21:54:13.389Z,19.67
2023-01-28T21:56:45.859Z,20.40
2023-01-28T21:59:29.098Z,22.35
2023-01-28T22:02:03.774Z,19.75
2023-01-28T22:04:36.027Z,19.35
2023-01-28T22:07:06.306Z,18.58
2023-01-28T22:09:39.615Z,18.95
2023-01-28T22:12:08.165Z,18.38
2023-01-28T22:14:39.520Z,21.73
2023-01-28T22:17:11.649Z,19.23
2023-01-28T22:19:47.789Z,17.15
2023-01-28T22:22:16.268Z,18.00
2023-01-28T22:24:43.555Z,17.75
2023-01-28T22:27:11.021Z,18.75
2023-01-28T22:29:41.292Z,17.55
2023-01-28T22:32:08.763Z,18.52
2023-01-28T22:34:38.274Z,18.67
2023-01-28T22:37:07.726Z,19.25
2023-01-28T22:39:35.056Z,19.20
2023-01-28T22:42:04.402Z,17.75
2023-01-28T22:44:31.668Z,18.88
2023-01-28T22:46:58.968Z,17.80
2023-01-28T22:49:26.814Z,17.02
2023-01-28T22:51:54.046Z,16.67
2023-01-28T22:54:21.294Z,16.88
2023-01-28T22:56:48.653Z,18.40
2023-01-28T22:59:18.168Z,22.02
2023-01-28T23:01:45.447Z,20.15
2023-01-28T23:04:14.802Z,19.73
2023-01-28T23:06:44.366Z,20.42
2023-01-28T23:09:14.076Z,20.35
2023-01-28T23:11:41.323Z,18.88
2023-01-28T23:14:30.615Z,19.50
2023-01-28T23:17:16.332Z,19.77
2023-01-28T23:20:02.467Z,19.65
2023-01-28T23:22:52.687Z,19.10
2023-01-28T23:25:24.963Z,17.63
2023-01-28T23:27:52.217Z,18.27
2023-01-28T23:30:25.370Z,16.20
2023-01-28T23:35:26.340Z,15.98
2023-01-28T23:37:56.612Z,17.77
2023-01-28T23:40:27.215Z,17.15
2023-01-28T23:42:58.319Z,17.38
2023-01-28T23:45:25.631Z,17.25
2023-01-28T23:47:54.958Z,16.88
2023-01-28T23:50:24.360Z,16.20
2023-01-28T23:52:53.714Z,16.73
2023-01-28T23:55:23.634Z,16.30
2023-01-28T23:57:53.022Z,18.00
